createdAt,value
2023-04-28T00:00:03.906Z,2.05
2023-04-28T00:02:34.626Z,2.38
2023-04-28T00:05:02.934Z,2.15
2023-04-28T00:07:31.774Z,2.00
2023-04-28T00:09:59.507Z,1.90
2023-04-28T00:12:27.199Z,1.60
2023-04-28T00:14:54.957Z,1.98
2023-04-28T00:17:22.629Z,2.22
2023-04-28T00:19:50.876Z,2.10
2023-04-28T00:22:21.939Z,2.33
2023-04-28T00:24:49.735Z,2.05
2023-04-28T00:27:17.744Z,1.52
2023-04-28T00:29:46.284Z,1.60
2023-04-28T00:32:14.428Z,1.48
2023-04-28T00:34:42.425Z,1.33
2023-04-28T00:37:10.596Z,1.30
2023-04-28T00:39:38.468Z,1.13
2023-04-28T00:42:12.275Z,1.33
2023-04-28T00:44:41.762Z,1.08
2023-04-28T00:47:10.363Z,0.90
2023-04-28T00:49:38.312Z,1.00
2023-04-28T00:52:07.304Z,1.00
2023-04-28T00:54:40.757Z,0.85
2023-04-28T00:57:14.054Z,1.00
2023-04-28T00:59:44.190Z,1.10
2023-04-28T01:02:17.955Z,0.70
2023-04-28T01:04:50.306Z,1.08
2023-04-28T01:07:20.810Z,1.08
2023-04-28T01:09:48.597Z,0.85
2023-04-28T01:12:22.615Z,0.90
2023-04-28T01:14:52.848Z,1.10
2023-04-28T01:17:20.846Z,1.10
2023-04-28T01:19:48.736Z,1.10
2023-04-28T01:22:16.778Z,1.00
2023-04-28T01:24:45.988Z,1.27
2023-04-28T01:27:15.332Z,0.82
2023-04-28T01:29:43.323Z,1.17
2023-04-28T01:32:11.733Z,1.50
2023-04-28T01:34:40.667Z,1.50
2023-04-28T01:37:08.353Z,1.35
2023-04-28T01:39:37.985Z,1.20
2023-04-28T01:42:07.723Z,1.40
2023-04-28T01:44:35.716Z,1.17
2023-04-28T01:47:03.811Z,1.40
2023-04-28T01:49:31.621Z,1.70
2023-04-28T01:51:59.525Z,1.63
2023-04-28T01:54:34.920Z,1.27
2023-04-28T01:57:03.409Z,1.40
2023-04-28T01:59:32.390Z,1.42
2023-04-28T02:02:00.337Z,1.60
2023-04-28T02:04:28.747Z,1.60
2023-04-28T02:06:56.657Z,2.17
2023-04-28T02:09:25.462Z,1.45
2023-04-28T02:11:53.154Z,1.88
2023-04-28T02:14:23.281Z,1.83
2023-04-28T02:16:51.360Z,1.90
2023-04-28T02:19:22.963Z,2.00
2023-04-28T02:21:51.073Z,1.88
2023-04-28T02:24:19.028Z,1.58
2023-04-28T02:26:47.035Z,2.53
2023-04-28T02:29:15.142Z,2.60
2023-04-28T02:31:43.077Z,3.15
2023-04-28T02:34:10.771Z,3.70
2023-04-28T02:36:39.573Z,3.45
2023-04-28T02:39:08.801Z,3.50
2023-04-28T02:41:36.674Z,5.10
2023-04-28T02:44:04.710Z,4.18
2023-04-28T02:46:32.686Z,4.20
2023-04-28T02:49:00.465Z,4.22
2023-04-28T02:51:28.714Z,3.20
2023-04-28T02:53:56.928Z,3.40
2023-04-28T02:56:25.103Z,3.38
2023-04-28T02:58:53.454Z,3.95
2023-04-28T03:01:21.328Z,3.00
2023-04-28T03:03:49.226Z,3.70
2023-04-28T03:06:17.249Z,3.53
2023-04-28T03:08:45.046Z,4.30
2023-04-28T03:11:13.140Z,3.70
2023-04-28T03:13:41.700Z,3.42
2023-04-28T03:16:09.557Z,3.28
2023-04-28T03:18:37.632Z,2.92
2023-04-28T03:21:05.469Z,3.42
2023-04-28T03:23:33.457Z,3.92
2023-04-28T03:26:01.488Z,3.75
2023-04-28T03:28:30.646Z,3.67
2023-04-28T03:31:01.168Z,3.20
2023-04-28T03:33:29.126Z,3.38
2023-04-28T03:35:57.511Z,3.55
2023-04-28T03:38:25.190Z,3.47
2023-04-28T03:40:53.359Z,3.33
2023-04-28T03:43:47.749Z,4.05
2023-04-28T03:46:26.600Z,3.65
2023-04-28T03:48:54.703Z,3.50
2023-04-28T03:51:28.450Z,3.90
2023-04-28T03:53:56.608Z,3.65
2023-04-28T03:56:24.551Z,4.20
2023-04-28T03:58:52.422Z,3.80
2023-04-28T04:01:26.658Z,4.57
2023-04-28T04:03:55.033Z,4.30
2023-04-28T04:06:26.102Z,4.15
2023-04-28T04:08:54.062Z,4.03
2023-04-28T04:11:22.653Z,4.65
2023-04-28T04:13:50.576Z,4.15
2023-04-28T04:16:22.117Z,4.32
2023-04-28T04:18:49.963Z,4.03
2023-04-28T04:23:52.736Z,4.30
2023-04-28T04:26:21.642Z,4.60
2023-04-28T04:28:51.482Z,3.97
2023-04-28T04:31:22.833Z,4.03
2023-04-28T04:33:52.291Z,4.35
2023-04-28T04:36:22.646Z,4.13
2023-04-28T04:38:52.610Z,5.28
2023-04-28T04:41:24.583Z,4.38
2023-04-28T04:44:06.119Z,4.55
2023-04-28T04:46:40.148Z,3.97
2023-04-28T04:49:08.584Z,4.18
2023-04-28T04:51:37.733Z,4.60
2023-04-28T04:54:08.966Z,4.47
2023-04-28T04:56:38.545Z,4.53
2023-04-28T04:59:09.339Z,3.80
2023-04-28T05:02:00.359Z,3.90
2023-04-28T05:04:31.648Z,3.78
2023-04-28T05:07:01.266Z,4.50
2023-04-28T05:09:30.813Z,3.83
2023-04-28T05:11:58.942Z,4.30
2023-04-28T05:14:27.234Z,3.90
2023-04-28T05:16:57.210Z,3.30
2023-04-28T05:19:27.867Z,4.03
2023-04-28T05:21:55.906Z,3.80
2023-04-28T05:24:24.875Z,3.40
2023-04-28T05:26:54.247Z,3.55
2023-04-28T05:29:22.106Z,3.75
2023-04-28T05:31:49.863Z,3.13
2023-04-28T05:34:18.160Z,3.67
2023-04-28T05:36:46.398Z,3.22
2023-04-28T05:39:14.481Z,4.32
2023-04-28T05:41:43.134Z,4.03
2023-04-28T05:44:11.948Z,4.13
2023-04-28T05:46:40.635Z,3.85
2023-04-28T05:49:10.724Z,3.85
2023-04-28T05:51:39.079Z,3.70
2023-04-28T05:54:09.691Z,4.28
2023-04-28T05:56:43.357Z,3.83
2023-04-28T05:59:11.206Z,4.43
2023-04-28T06:01:39.409Z,4.13
2023-04-28T06:04:07.748Z,4.22
2023-04-28T06:06:35.806Z,3.97
2023-04-28T06:09:05.894Z,4.20
2023-04-28T06:11:39.483Z,4.00
2023-04-28T06:14:08.299Z,4.47
2023-04-28T06:16:36.283Z,4.38
2023-04-28T06:19:04.454Z,4.55
2023-04-28T06:21:32.710Z,4.22
2023-04-28T06:24:02.680Z,4.00
2023-04-28T06:26:33.349Z,4.40
2023-04-28T06:29:01.693Z,3.92
2023-04-28T06:31:31.316Z,4.95
2023-04-28T06:33:59.768Z,4.22
2023-04-28T06:36:30.156Z,4.30
2023-04-28T06:38:58.951Z,4.28
2023-04-28T06:41:26.994Z,4.57
2023-04-28T06:43:55.547Z,4.57
2023-04-28T06:46:29.511Z,5.43
2023-04-28T06:48:59.976Z,3.83
2023-04-28T06:51:28.963Z,4.38
2023-04-28T06:53:57.147Z,4.00
2023-04-28T06:56:25.355Z,4.13
2023-04-28T06:58:55.998Z,4.65
2023-04-28T07:01:23.809Z,3.83
2023-04-28T07:03:54.053Z,4.35
2023-04-28T07:06:21.839Z,4.35
2023-04-28T07:08:49.487Z,4.28
2023-04-28T07:11:17.264Z,4.47
2023-04-28T07:13:49.430Z,4.78
2023-04-28T07:16:21.464Z,4.15
2023-04-28T07:18:49.321Z,3.28
2023-04-28T07:21:17.712Z,2.92
2023-04-28T07:23:46.586Z,2.63
2023-04-28T07:26:16.471Z,2.80
2023-04-28T07:28:51.664Z,3.05
2023-04-28T07:31:19.541Z,2.95
2023-04-28T07:33:48.542Z,2.28
2023-04-28T07:36:16.818Z,2.30
2023-04-28T07:38:44.774Z,2.65
2023-04-28T07:41:12.837Z,2.95
2023-04-28T07:43:41.183Z,2.85
2023-04-28T07:46:09.988Z,1.70
2023-04-28T07:48:37.760Z,2.00
2023-04-28T07:51:05.437Z,2.08
2023-04-28T07:53:33.771Z,1.90
2023-04-28T07:56:01.515Z,1.85
2023-04-28T07:58:29.197Z,2.03
2023-04-28T08:00:57.301Z,2.30
2023-04-28T08:03:25.187Z,2.03
2023-04-28T08:05:52.987Z,2.67
2023-04-28T08:08:20.969Z,2.30
2023-04-28T08:10:50.822Z,2.65
2023-04-28T08:13:29.423Z,2.83
2023-04-28T08:15:57.538Z,2.03
2023-04-28T08:18:26.515Z,2.00
2023-04-28T08:20:54.756Z,1.80
2023-04-28T08:23:22.697Z,1.45
2023-04-28T08:25:50.754Z,2.08
2023-04-28T08:28:19.060Z,1.35
2023-04-28T08:30:47.039Z,1.42
2023-04-28T08:33:15.397Z,1.45
2023-04-28T08:35:43.044Z,1.95
2023-04-28T08:38:15.368Z,1.30
2023-04-28T08:40:43.218Z,2.20
2023-04-28T08:43:11.854Z,0.60
2023-04-28T08:45:45.890Z,0.60
2023-04-28T08:48:23.108Z,0.88
2023-04-28T08:50:56.080Z,1.60
2023-04-28T08:53:26.068Z,1.50
2023-04-28T08:55:57.089Z,1.60
2023-04-28T08:58:26.929Z,1.33
2023-04-28T09:00:58.790Z,1.05
2023-04-28T09:03:27.117Z,1.17
2023-04-28T09:05:55.351Z,1.30
2023-04-28T09:08:23.146Z,2.13
2023-04-28T09:11:10.183Z,1.80
2023-04-28T09:13:38.035Z,2.08
2023-04-28T09:16:06.680Z,2.30
2023-04-28T09:18:34.895Z,2.03
2023-04-28T09:21:07.851Z,1.92
2023-04-28T09:23:48.291Z,2.20
2023-04-28T09:26:16.184Z,1.70
2023-04-28T09:28:43.961Z,1.90
2023-04-28T09:31:29.992Z,2.28
2023-04-28T09:34:00.960Z,1.70
2023-04-28T09:36:32.979Z,2.00
2023-04-28T09:39:01.632Z,1.60
2023-04-28T09:41:36.606Z,1.60
2023-04-28T09:44:12.441Z,1.60
2023-04-28T09:46:40.475Z,1.65
2023-04-28T09:49:08.839Z,1.25
2023-04-28T09:51:36.567Z,0.90
2023-04-28T09:54:04.528Z,1.40
2023-04-28T09:56:34.021Z,2.10
2023-04-28T09:59:02.290Z,1.88
2023-04-28T10:01:53.877Z,1.75
2023-04-28T10:04:22.597Z,1.85
2023-04-28T10:06:50.694Z,2.00
2023-04-28T10:09:26.609Z,2.85
2023-04-28T10:11:54.626Z,2.55
2023-04-28T10:14:23.881Z,2.42
2023-04-28T10:16:54.741Z,2.28
2023-04-28T10:19:22.498Z,2.70
2023-04-28T10:22:08.709Z,2.38
2023-04-28T10:24:55.395Z,1.30
2023-04-28T10:27:31.523Z,1.58
2023-04-28T10:30:26.696Z,1.17
2023-04-28T10:33:15.091Z,1.52
2023-04-28T10:35:48.545Z,1.10
2023-04-28T10:38:17.715Z,1.40
2023-04-28T10:40:53.975Z,1.50
2023-04-28T10:43:32.078Z,1.02
2023-04-28T10:46:06.662Z,0.80
2023-04-28T10:48:35.062Z,1.45
2023-04-28T10:51:07.968Z,1.42
2023-04-28T10:53:49.438Z,1.17
2023-04-28T10:56:27.984Z,1.50
2023-04-28T10:59:00.343Z,1.48
2023-04-28T11:01:30.899Z,1.25
2023-04-28T11:04:01.264Z,1.52
2023-04-28T11:06:43.651Z,1.70
2023-04-28T11:09:20.389Z,1.63
2023-04-28T11:12:00.381Z,1.17
2023-04-28T11:14:32.447Z,0.98
2023-04-28T11:17:08.699Z,1.50
2023-04-28T11:19:49.554Z,1.40
2023-04-28T11:22:23.930Z,1.48
2023-04-28T11:25:03.058Z,1.65
2023-04-28T11:27:34.922Z,1.38
2023-04-28T11:30:03.088Z,1.50
2023-04-28T11:32:35.554Z,1.50
2023-04-28T11:35:10.305Z,1.65
2023-04-28T11:37:40.327Z,1.90
2023-04-28T11:40:13.158Z,1.95
2023-04-28T11:42:48.910Z,2.30
2023-04-28T11:45:17.699Z,3.08
2023-04-28T11:47:45.785Z,2.53
2023-04-28T11:50:14.559Z,2.72
2023-04-28T11:52:52.386Z,3.80
2023-04-28T11:55:21.166Z,3.95
2023-04-28T11:58:24.078Z,4.00
2023-04-28T12:01:12.651Z,3.97
2023-04-28T12:03:47.654Z,4.68
2023-04-28T12:06:19.596Z,5.35
2023-04-28T12:08:52.986Z,4.43
2023-04-28T12:14:04.578Z,4.40
2023-04-28T12:16:51.832Z,4.85
2023-04-28T12:19:20.678Z,4.35
2023-04-28T12:22:08.737Z,5.30
2023-04-28T12:24:36.616Z,5.63
2023-04-28T12:27:25.138Z,5.60
2023-04-28T12:29:53.007Z,4.95
2023-04-28T12:32:20.718Z,4.50
2023-04-28T12:34:50.893Z,5.20
2023-04-28T12:37:18.601Z,4.57
2023-04-28T12:39:46.698Z,5.20
2023-04-28T12:42:15.088Z,4.57
2023-04-28T12:44:46.464Z,5.03
2023-04-28T12:47:14.371Z,4.57
2023-04-28T12:49:52.131Z,4.70
2023-04-28T12:52:20.917Z,4.95
2023-04-28T12:54:51.085Z,4.03
2023-04-28T12:57:19.989Z,5.38
2023-04-28T12:59:52.515Z,5.00
2023-04-28T13:02:20.669Z,5.47
2023-04-28T13:04:52.233Z,5.80
2023-04-28T13:07:19.904Z,4.93
2023-04-28T13:09:48.279Z,6.30
2023-04-28T13:12:15.964Z,5.55
2023-04-28T13:14:43.569Z,6.43
2023-04-28T13:17:14.594Z,6.28
2023-04-28T13:19:44.010Z,6.50
2023-04-28T13:22:12.650Z,6.65
2023-04-28T13:24:40.209Z,6.15
2023-04-28T13:27:10.368Z,6.03
2023-04-28T13:29:38.315Z,5.63
2023-04-28T13:32:06.680Z,5.85
2023-04-28T13:34:45.098Z,8.13
2023-04-28T13:37:13.404Z,7.82
2023-04-28T13:39:41.043Z,8.52
2023-04-28T13:42:08.935Z,8.82
2023-04-28T13:44:36.867Z,8.00
2023-04-28T13:47:06.876Z,8.20
2023-04-28T13:49:35.006Z,7.68
2023-04-28T13:52:03.915Z,9.02
2023-04-28T13:54:31.788Z,8.18
2023-04-28T13:57:24.971Z,9.32
2023-04-28T13:59:52.991Z,9.20
2023-04-28T14:02:20.907Z,9.65
2023-04-28T14:04:50.798Z,9.07
2023-04-28T14:07:19.569Z,9.60
2023-04-28T14:09:51.777Z,9.07
2023-04-28T14:12:19.547Z,8.77
2023-04-28T14:14:49.495Z,9.45
2023-04-28T14:17:17.672Z,9.02
2023-04-28T14:19:48.391Z,9.50
2023-04-28T14:22:16.523Z,10.73
2023-04-28T14:24:44.365Z,9.02
2023-04-28T14:27:12.072Z,10.10
2023-04-28T14:29:39.936Z,9.35
2023-04-28T14:32:07.484Z,9.25
2023-04-28T14:34:35.483Z,9.35
2023-04-28T14:37:03.449Z,10.32
2023-04-28T14:39:31.690Z,10.52
2023-04-28T14:41:59.329Z,8.82
2023-04-28T14:44:26.986Z,9.77
2023-04-28T14:46:54.902Z,10.10
2023-04-28T14:49:23.925Z,9.20
2023-04-28T14:51:51.545Z,11.45
2023-04-28T14:54:19.646Z,10.80
2023-04-28T14:56:48.629Z,11.27
2023-04-28T14:59:16.929Z,11.32
2023-04-28T15:01:45.125Z,10.68
2023-04-28T15:04:13.075Z,12.65
2023-04-28T15:06:40.852Z,11.32
2023-04-28T15:09:08.760Z,11.70
2023-04-28T15:11:36.582Z,10.10
2023-04-28T15:14:04.357Z,11.55
2023-04-28T15:16:32.166Z,11.55
2023-04-28T15:19:03.437Z,11.38
2023-04-28T15:21:31.426Z,11.13
2023-04-28T15:26:44.472Z,11.45
2023-04-28T15:29:14.408Z,11.13
2023-04-28T15:31:50.812Z,12.20
2023-04-28T15:34:20.778Z,9.25
2023-04-28T15:36:49.905Z,12.30
2023-04-28T15:39:17.853Z,11.73
2023-04-28T15:41:45.496Z,11.20
2023-04-28T15:44:16.194Z,11.27
2023-04-28T15:46:45.052Z,10.77
2023-04-28T15:49:13.436Z,12.02
2023-04-28T15:51:41.099Z,10.80
2023-04-28T15:54:08.984Z,11.82
2023-04-28T15:56:36.848Z,9.13
2023-04-28T15:59:06.300Z,9.77
2023-04-28T16:01:37.257Z,10.98
2023-04-28T16:04:08.627Z,9.18
2023-04-28T16:06:39.692Z,10.70
2023-04-28T16:09:07.328Z,8.75
2023-04-28T16:11:36.052Z,10.30
2023-04-28T16:14:04.318Z,8.27
2023-04-28T16:16:32.323Z,9.85
2023-04-28T16:19:03.319Z,8.25
2023-04-28T16:21:36.631Z,10.50
2023-04-28T16:24:16.055Z,9.38
2023-04-28T16:26:49.251Z,9.25
2023-04-28T16:29:19.320Z,9.68
2023-04-28T16:32:00.220Z,9.55
2023-04-28T16:34:28.205Z,8.80
2023-04-28T16:36:56.305Z,9.02
2023-04-28T16:39:24.263Z,10.27
2023-04-28T16:41:52.145Z,9.63
2023-04-28T16:44:22.365Z,8.13
2023-04-28T16:46:50.746Z,8.38
2023-04-28T16:49:18.604Z,9.25
2023-04-28T16:52:00.583Z,8.43
2023-04-28T16:54:30.345Z,9.45
2023-04-28T16:57:04.340Z,8.30
2023-04-28T16:59:34.523Z,8.32
2023-04-28T17:02:04.466Z,7.93
2023-04-28T17:04:32.933Z,7.90
2023-04-28T17:07:08.429Z,9.65
2023-04-28T17:09:36.865Z,7.72
2023-04-28T17:12:05.553Z,7.70
2023-04-28T17:14:43.050Z,8.05
2023-04-28T17:17:10.978Z,8.13
2023-04-28T17:19:44.984Z,8.07
2023-04-28T17:22:12.751Z,7.70
2023-04-28T17:24:40.612Z,8.90
2023-04-28T17:27:09.627Z,7.75
2023-04-28T17:29:37.518Z,8.15
2023-04-28T17:32:05.911Z,8.15
2023-04-28T17:34:33.826Z,8.68
2023-04-28T17:37:01.652Z,9.43
2023-04-28T17:39:29.970Z,6.75
2023-04-28T17:41:58.289Z,8.30
2023-04-28T17:44:28.526Z,8.35
2023-04-28T17:47:07.977Z,7.45
2023-04-28T17:49:44.849Z,6.07
2023-04-28T17:52:15.696Z,7.93
2023-04-28T17:54:43.627Z,8.63
2023-04-28T17:57:11.820Z,7.85
2023-04-28T17:59:43.211Z,7.90
2023-04-28T18:02:13.973Z,8.00
2023-04-28T18:04:41.893Z,8.15
2023-04-28T18:07:09.950Z,8.82
2023-04-28T18:09:43.810Z,8.98
2023-04-28T18:12:18.356Z,8.82
2023-04-28T18:14:50.605Z,8.32
2023-04-28T18:17:23.532Z,8.07
2023-04-28T18:19:57.209Z,8.23
2023-04-28T18:22:26.246Z,8.65
2023-04-28T18:24:54.424Z,9.60
2023-04-28T18:27:24.939Z,8.15
2023-04-28T18:29:53.564Z,9.55
2023-04-28T18:32:21.251Z,7.85
2023-04-28T18:34:53.355Z,8.27
2023-04-28T18:37:21.606Z,7.55
2023-04-28T18:39:49.302Z,7.53
2023-04-28T18:42:17.109Z,6.85
2023-04-28T18:44:45.029Z,6.20
2023-04-28T18:47:15.819Z,4.22
2023-04-28T18:49:44.078Z,5.88
2023-04-28T18:52:11.829Z,5.00
2023-04-28T18:54:40.061Z,6.13
2023-04-28T18:57:07.997Z,5.15
2023-04-28T18:59:35.769Z,5.75
2023-04-28T19:02:03.931Z,5.97
2023-04-28T19:04:31.722Z,5.47
2023-04-28T19:07:02.258Z,5.07
2023-04-28T19:09:32.552Z,4.05
2023-04-28T19:12:03.732Z,5.45
2023-04-28T19:14:35.570Z,4.70
2023-04-28T19:17:03.777Z,5.07
2023-04-28T19:19:39.912Z,4.65
2023-04-28T19:22:30.609Z,4.45
2023-04-28T19:24:59.053Z,4.10
2023-04-28T19:27:30.022Z,4.05
2023-04-28T19:30:02.426Z,4.15
2023-04-28T19:32:39.113Z,4.63
2023-04-28T19:35:08.763Z,4.80
2023-04-28T19:37:37.103Z,5.35
2023-04-28T19:40:05.655Z,4.97
2023-04-28T19:42:37.820Z,4.57
2023-04-28T19:45:06.335Z,5.72
2023-04-28T19:47:34.994Z,5.15
2023-04-28T19:50:04.429Z,4.70
2023-04-28T19:52:32.337Z,5.03
2023-04-28T19:55:02.400Z,5.93
2023-04-28T19:57:30.600Z,5.07
2023-04-28T19:59:58.657Z,5.30
2023-04-28T20:02:26.564Z,5.75
2023-04-28T20:04:57.547Z,5.05
2023-04-28T20:07:25.561Z,4.63
2023-04-28T20:09:56.293Z,3.53
2023-04-28T20:12:24.548Z,3.88
2023-04-28T20:14:53.109Z,3.25
2023-04-28T20:17:24.045Z,3.58
2023-04-28T20:19:52.066Z,3.80
2023-04-28T20:22:23.401Z,3.80
2023-04-28T20:25:01.772Z,3.03
2023-04-28T20:27:31.776Z,3.33
2023-04-28T20:30:06.922Z,3.72
2023-04-28T20:32:37.402Z,3.60
2023-04-28T20:35:09.207Z,4.07
2023-04-28T20:37:49.808Z,3.80
2023-04-28T20:40:20.725Z,3.07
2023-04-28T20:42:49.704Z,3.53
2023-04-28T20:45:19.347Z,4.10
2023-04-28T20:47:47.885Z,4.07
2023-04-28T20:50:16.156Z,3.42
2023-04-28T20:52:43.830Z,3.38
2023-04-28T20:55:12.018Z,4.00
2023-04-28T20:57:40.054Z,4.15
2023-04-28T21:00:09.326Z,3.42
2023-04-28T21:02:45.498Z,3.80
2023-04-28T21:05:13.337Z,4.07
2023-04-28T21:07:42.049Z,3.90
2023-04-28T21:10:10.781Z,3.97
2023-04-28T21:12:38.930Z,4.13
2023-04-28T21:15:07.900Z,4.05
2023-04-28T21:17:35.952Z,4.32
2023-04-28T21:20:04.106Z,4.43
2023-04-28T21:22:31.975Z,4.00
2023-04-28T21:24:59.639Z,3.90
2023-04-28T21:27:27.564Z,3.67
2023-04-28T21:29:55.708Z,3.90
2023-04-28T21:32:23.508Z,4.13
2023-04-28T21:34:51.675Z,3.90
2023-04-28T21:37:19.927Z,4.15
2023-04-28T21:39:47.852Z,3.80
2023-04-28T21:42:16.061Z,3.63
2023-04-28T21:44:44.238Z,3.22
2023-04-28T21:47:11.981Z,3.20
2023-04-28T21:49:40.095Z,3.60
2023-04-28T21:52:11.102Z,4.03
2023-04-28T21:54:41.946Z,3.45
2023-04-28T21:57:11.312Z,3.20
2023-04-28T21:59:39.101Z,3.88
2023-04-28T22:02:07.513Z,3.80
2023-04-28T22:04:36.242Z,3.70
2023-04-28T22:07:04.882Z,4.13
2023-04-28T22:09:33.750Z,3.83
2023-04-28T22:12:01.632Z,3.67
2023-04-28T22:17:00.212Z,4.20
2023-04-28T22:19:28.426Z,3.78
2023-04-28T22:22:00.006Z,3.95
2023-04-28T22:24:28.216Z,3.72
2023-04-28T22:26:56.098Z,3.90
2023-04-28T22:29:24.194Z,4.55
2023-04-28T22:31:53.471Z,4.20
2023-04-28T22:34:23.016Z,4.10
2023-04-28T22:36:50.864Z,4.22
2023-04-28T22:39:18.824Z,4.45
2023-04-28T22:41:47.206Z,4.07
2023-04-28T22:44:15.035Z,3.47
2023-04-28T22:46:45.678Z,3.33
2023-04-28T22:49:13.454Z,3.17
2023-04-28T22:51:41.349Z,3.97
2023-04-28T22:54:09.202Z,3.92
2023-04-28T22:56:37.312Z,4.20
2023-04-28T22:59:05.745Z,4.78
2023-04-28T23:01:33.826Z,4.53
2023-04-28T23:04:01.967Z,4.95
2023-04-28T23:06:30.053Z,4.68
2023-04-28T23:08:58.667Z,4.95
2023-04-28T23:11:26.641Z,4.18
2023-04-28T23:13:54.754Z,4.07
2023-04-28T23:16:23.065Z,4.93
2023-04-28T23:18:51.004Z,5.07
2023-04-28T23:21:18.924Z,4.97
2023-04-28T23:23:46.949Z,5.10
2023-04-28T23:26:14.883Z,4.43
2023-04-28T23:28:42.913Z,4.88
2023-04-28T23:31:10.891Z,4.85
2023-04-28T23:33:39.126Z,5.95
2023-04-28T23:36:07.345Z,6.63
2023-04-28T23:38:35.680Z,6.38
2023-04-28T23:41:06.651Z,6.25
2023-04-28T23:43:34.661Z,6.65
2023-04-28T23:46:03.068Z,7.13
2023-04-28T23:48:31.188Z,7.15
2023-04-28T23:50:59.196Z,7.00
2023-04-28T23:53:27.728Z,6.85
2023-04-28T23:55:55.555Z,6.95
2023-04-28T23:58:23.443Z,6.00
